Time;durP1;ratioP1;P1;durP2;ratioP2;P2;SDS_P1;SDS_P2;PMS_P1;PMS_P2;Temp;Humidity;BMP_temperature;BMP_pressure;BME280_temperature;BME280_humidity;BME280_pressure;Samples;Min_cycle;Max_cycle;Signal;HPM_P1;HPM_P2
2023/04/30 00:02:24;;;;;;;3.60;1.57;;;11.50;99.90;11.30;100884.00;;;;4930819;28;87871;-65
2023/04/30 00:04:49;;;;;;;1.50;1.40;;;11.40;99.90;11.20;100890.00;;;;4931423;28;89025;-65
2023/04/30 00:07:15;;;;;;;3.33;3.03;;;11.70;99.90;11.10;100877.00;;;;4926285;28;117556;-65
2023/04/30 00:09:41;;;;;;;2.27;2.07;;;11.30;99.90;11.00;100884.00;;;;4928277;28;110551;-65
2023/04/30 00:12:06;;;;;;;3.83;2.27;;;11.10;99.90;10.90;100888.00;;;;4928937;28;107181;-65
2023/04/30 00:14:32;;;;;;;3.00;2.47;;;11.00;99.90;10.80;100888.00;;;;4928433;28;118485;-66
2023/04/30 00:16:57;;;;;;;2.50;2.30;;;10.90;99.90;10.70;100887.00;;;;4926411;28;118167;-65
2023/04/30 00:19:23;;;;;;;2.40;2.20;;;10.80;99.90;10.60;100882.00;;;;4929299;28;110174;-65
2023/04/30 00:21:49;;;;;;;4.07;2.73;;;10.70;99.90;10.50;100897.00;;;;4929322;28;87922;-65
2023/04/30 00:24:15;;;;;;;2.73;2.13;;;10.60;99.90;10.40;100886.00;;;;4929005;28;89147;-66
2023/04/30 00:26:42;;;;;;;3.73;2.33;;;10.50;99.90;10.30;100890.00;;;;4924874;28;116876;-65
2023/04/30 00:29:09;;;;;;;3.07;2.13;;;10.40;99.90;10.20;100890.00;;;;4925822;28;87891;-65
2023/04/30 00:31:35;;;;;;;3.47;2.00;;;10.30;99.90;10.10;100891.00;;;;4927285;28;87967;-66
2023/04/30 00:34:01;;;;;;;2.50;2.27;;;10.20;99.90;10.00;100892.00;;;;4926573;28;115235;-65
2023/04/30 00:36:26;;;;;;;5.10;2.97;;;10.10;99.90;9.90;100892.00;;;;4929690;28;116688;-65
2023/04/30 00:38:52;;;;;;;2.90;2.00;;;10.00;99.90;9.80;100895.00;;;;4928308;28;109678;-65
2023/04/30 00:41:19;;;;;;;2.83;2.43;;;9.90;99.90;9.70;100895.00;;;;4926511;28;87740;-65
2023/04/30 00:43:46;;;;;;;3.23;2.27;;;9.80;99.90;9.60;100907.00;;;;4929780;28;89082;-64
2023/04/30 00:46:11;;;;;;;3.90;2.37;;;9.70;99.90;9.60;100899.00;;;;4927008;28;88849;-65
2023/04/30 00:48:37;;;;;;;2.67;1.70;;;9.70;99.90;9.50;100898.00;;;;4928714;28;87888;-67
2023/04/30 00:51:03;;;;;;;4.03;2.53;;;9.60;99.90;9.40;100904.00;;;;4928778;28;108357;-65
2023/04/30 00:53:30;;;;;;;2.40;2.20;;;9.50;99.90;9.30;100898.00;;;;4927610;28;88986;-65
2023/04/30 00:55:56;;;;;;;2.70;2.50;;;9.40;99.90;9.30;100900.00;;;;4927490;28;102387;-65
2023/04/30 00:58:22;;;;;;;2.13;1.93;;;9.40;99.90;9.20;100913.00;;;;4923654;28;109854;-65
2023/04/30 01:00:48;;;;;;;2.97;1.97;;;9.30;99.90;9.10;100918.00;;;;4928517;28;107880;-65
2023/04/30 01:03:14;;;;;;;3.60;1.83;;;9.30;99.90;9.10;100922.00;;;;4927505;28;117565;-65
2023/04/30 01:05:40;;;;;;;2.30;1.70;;;9.20;99.90;9.00;100928.00;;;;4928571;28;87954;-65
2023/04/30 01:08:08;;;;;;;2.83;1.93;;;9.10;99.90;8.90;100927.00;;;;4926559;28;89136;-65
2023/04/30 01:11:02;;;;;;;4.53;2.73;;;9.10;99.90;8.80;100927.00;;;;4926869;28;87954;-64
2023/04/30 01:14:21;;;;;;;4.20;2.20;;;9.00;99.90;8.70;100942.00;;;;4928642;28;87800;-66
2023/04/30 01:17:37;;;;;;;2.00;1.60;;;8.90;99.90;8.50;100939.00;;;;4919270;28;94732;-65
2023/04/30 01:20:06;;;;;;;1.77;1.50;;;8.80;99.90;8.50;100935.00;;;;4916283;28;88155;-65
2023/04/30 01:22:48;;;;;;;4.00;2.63;;;8.70;99.90;8.40;100944.00;;;;4926167;28;87811;-66
2023/04/30 01:25:43;;;;;;;2.63;2.20;;;8.60;99.90;8.30;100943.00;;;;4942085;28;109499;-66
2023/04/30 01:28:17;;;;;;;2.40;2.10;;;8.60;99.90;8.30;100945.00;;;;4926362;28;87667;-65
2023/04/30 01:30:44;;;;;;;3.97;2.33;;;8.50;99.90;8.30;100953.00;;;;4926988;28;87983;-66
2023/04/30 01:33:10;;;;;;;1.80;1.70;;;8.40;99.90;8.20;100951.00;;;;4927553;28;108831;-65
2023/04/30 01:36:10;;;;;;;1.63;1.53;;;8.40;99.90;8.10;100952.00;;;;4927165;28;90009;-65
2023/04/30 01:39:05;;;;;;;2.20;1.90;;;8.30;99.90;8.00;100958.00;;;;4924638;28;90253;-66
2023/04/30 01:41:49;;;;;;;6.03;2.90;;;8.30;99.90;8.00;100959.00;;;;4930374;28;88078;-64
2023/04/30 01:45:14;;;;;;;2.03;1.83;;;8.20;99.90;7.90;100957.00;;;;4930659;28;89868;-65
2023/04/30 01:48:24;;;;;;;2.60;2.40;;;8.10;99.90;7.80;100965.00;;;;4925791;28;88025;-65
2023/04/30 01:51:06;;;;;;;2.27;2.13;;;8.10;99.90;7.80;100964.00;;;;4927968;28;110808;-64
2023/04/30 01:53:41;;;;;;;4.97;1.87;;;8.00;99.90;7.80;100962.00;;;;4925302;28;88030;-65
2023/04/30 01:56:17;;;;;;;2.77;2.43;;;8.00;99.90;7.70;100967.00;;;;4928378;28;98636;-65
2023/04/30 01:58:45;;;;;;;2.07;1.70;;;7.90;99.90;7.70;100971.00;;;;4927218;28;88319;-65
2023/04/30 02:01:29;;;;;;;3.13;2.70;;;7.80;99.90;7.60;100975.00;;;;4929914;28;117739;-64
2023/04/30 02:03:55;;;;;;;2.13;1.83;;;7.80;99.90;7.60;100976.00;;;;4923989;28;88919;-65
2023/04/30 02:06:26;;;;;;;2.60;2.17;;;7.70;99.90;7.50;100972.00;;;;4925602;28;87921;-64
2023/04/30 02:08:53;;;;;;;2.67;2.13;;;7.70;99.90;7.40;100981.00;;;;4927824;28;88753;-66
2023/04/30 02:11:19;;;;;;;2.20;1.70;;;7.60;99.90;7.30;100978.00;;;;4926971;28;88163;-65
2023/04/30 02:13:45;;;;;;;1.90;1.37;;;7.50;99.90;7.30;100978.00;;;;4927397;28;87991;-64
2023/04/30 02:16:10;;;;;;;3.83;2.03;;;7.50;99.90;7.20;100992.00;;;;4923991;28;87763;-65
2023/04/30 02:18:36;;;;;;;9.17;2.23;;;7.40;99.90;7.10;100984.00;;;;4926830;28;89109;-65
2023/04/30 02:23:27;;;;;;;2.43;2.07;;;7.30;99.90;7.00;101004.00;;;;4928311;28;109503;-65
2023/04/30 02:25:53;;;;;;;2.53;2.03;;;7.20;99.90;6.90;101005.00;;;;4929377;28;87885;-65
2023/04/30 02:28:18;;;;;;;2.27;1.93;;;7.10;99.90;6.90;101008.00;;;;4925443;28;119965;-65
2023/04/30 02:30:44;;;;;;;2.77;2.20;;;7.10;99.90;6.80;101019.00;;;;4927310;28;117398;-65
2023/04/30 02:33:11;;;;;;;3.70;3.27;;;7.00;99.90;6.70;101022.00;;;;4926884;28;109965;-64
2023/04/30 02:35:37;;;;;;;4.20;2.37;;;7.40;99.90;6.70;101019.00;;;;4930667;28;88132;-65
2023/04/30 02:38:03;;;;;;;4.87;3.73;;;7.10;99.90;6.70;101028.00;;;;4931195;28;88690;-65
2023/04/30 02:40:28;;;;;;;3.90;2.60;;;6.80;99.90;6.60;101024.00;;;;4927321;28;118167;-66
2023/04/30 02:42:55;;;;;;;3.50;3.17;;;6.90;99.90;6.50;101026.00;;;;4926399;28;110671;-65
2023/04/30 02:45:21;;;;;;;4.50;2.37;;;7.10;99.90;6.50;101015.00;;;;4927219;28;87202;-64
2023/04/30 02:47:47;;;;;;;3.83;2.70;;;6.90;99.90;6.40;101024.00;;;;4928727;28;90032;-65
2023/04/30 02:50:13;;;;;;;6.17;2.93;;;7.00;99.90;6.40;101040.00;;;;4923568;28;88656;-65
2023/04/30 02:52:39;;;;;;;10.23;2.80;;;6.60;99.90;6.40;101032.00;;;;4925642;28;110465;-66
2023/04/30 02:55:06;;;;;;;3.60;2.50;;;6.60;99.90;6.30;101042.00;;;;4929129;28;109317;-65
2023/04/30 02:57:32;;;;;;;2.43;2.17;;;6.50;99.90;6.30;101036.00;;;;4925818;28;88309;-65
2023/04/30 02:59:57;;;;;;;2.97;2.30;;;5.90;99.90;6.20;101042.00;;;;4923409;28;117846;-65
2023/04/30 03:02:23;;;;;;;3.10;2.20;;;6.50;99.90;6.10;101044.00;;;;4922841;28;110789;-66
2023/04/30 03:04:49;;;;;;;5.03;2.60;;;6.30;99.90;6.00;101049.00;;;;4925231;28;87734;-64
2023/04/30 03:07:15;;;;;;;2.80;2.53;;;6.30;99.90;5.90;101057.00;;;;4926977;28;88183;-65
2023/04/30 03:09:40;;;;;;;3.90;2.37;;;6.20;99.90;5.80;101057.00;;;;4927638;28;117511;-65
2023/04/30 03:12:06;;;;;;;2.37;2.13;;;6.00;99.90;5.80;101063.00;;;;4926277;28;109221;-65
2023/04/30 03:14:32;;;;;;;4.67;1.90;;;6.00;99.90;5.70;101069.00;;;;4927015;28;88049;-65
2023/04/30 03:16:57;;;;;;;2.90;2.60;;;5.90;99.90;5.60;101063.00;;;;4923621;28;118998;-65
2023/04/30 03:19:24;;;;;;;4.40;2.27;;;6.20;99.90;5.60;101065.00;;;;4926012;28;118911;-64
2023/04/30 03:21:51;;;;;;;2.03;1.87;;;6.10;99.90;5.50;101075.00;;;;4925220;28;87914;-65
2023/04/30 03:24:18;;;;;;;3.07;2.43;;;5.70;99.90;5.40;101077.00;;;;4923587;28;87716;-65
2023/04/30 03:26:44;;;;;;;1.97;1.37;;;5.70;99.90;5.40;101080.00;;;;4928679;28;88994;-64
2023/04/30 03:29:10;;;;;;;2.67;1.97;;;5.70;99.90;5.30;101080.00;;;;4923244;28;108505;-65
2023/04/30 03:31:35;;;;;;;2.53;2.30;;;5.60;99.90;5.30;101081.00;;;;4927724;28;110750;-65
2023/04/30 03:34:01;;;;;;;4.13;1.87;;;5.50;99.90;5.30;101081.00;;;;4927851;28;107277;-65
2023/04/30 03:36:27;;;;;;;3.03;2.37;;;5.50;99.90;5.20;101092.00;;;;4923118;28;118224;-66
2023/04/30 03:38:52;;;;;;;2.97;2.33;;;5.40;99.90;5.20;101088.00;;;;4924787;28;88008;-65
2023/04/30 03:41:18;;;;;;;3.87;2.50;;;5.40;99.90;5.20;101090.00;;;;4926480;28;102650;-66
2023/04/30 03:43:44;;;;;;;3.37;2.57;;;5.40;99.90;5.20;101102.00;;;;4934555;28;100277;-66
2023/04/30 03:46:10;;;;;;;2.83;2.60;;;5.90;99.90;5.10;101094.00;;;;4929879;28;87806;-65
2023/04/30 03:48:35;;;;;;;6.17;2.83;;;5.30;99.90;5.10;101090.00;;;;4931340;28;115634;-65
2023/04/30 03:51:01;;;;;;;4.13;2.77;;;5.30;99.90;5.10;101105.00;;;;4933522;28;87834;-65
2023/04/30 03:53:27;;;;;;;2.77;2.20;;;5.30;99.90;5.20;101111.00;;;;4926383;28;108832;-66
2023/04/30 03:55:53;;;;;;;4.77;2.67;;;5.30;99.90;5.20;101110.00;;;;4929335;28;91647;-66
2023/04/30 03:58:20;;;;;;;3.00;2.53;;;5.40;99.90;5.30;101101.00;;;;4926949;28;88265;-66
2023/04/30 04:00:47;;;;;;;3.53;3.00;;;5.40;99.90;5.30;101108.00;;;;4931000;28;87699;-65
2023/04/30 04:03:14;;;;;;;3.67;2.00;;;5.50;99.90;5.40;101115.00;;;;4931456;28;87969;-65
2023/04/30 04:05:39;;;;;;;2.63;2.40;;;5.50;99.90;5.40;101117.00;;;;4931573;28;89270;-66
2023/04/30 04:08:06;;;;;;;2.53;2.30;;;5.60;99.90;5.50;101118.00;;;;4928141;28;89493;-66
2023/04/30 04:10:33;;;;;;;4.30;2.83;;;5.70;99.90;5.50;101119.00;;;;4928508;28;87797;-65
2023/04/30 04:12:59;;;;;;;2.57;2.00;;;5.60;99.90;5.50;101114.00;;;;4927471;28;87850;-66
2023/04/30 04:15:26;;;;;;;3.83;3.43;;;6.40;99.90;5.60;101122.00;;;;4930379;28;89099;-66
2023/04/30 04:17:51;;;;;;;2.53;2.33;;;5.70;99.90;5.60;101135.00;;;;4925343;28;118185;-66
2023/04/30 04:20:17;;;;;;;2.23;2.03;;;5.70;99.90;5.60;101131.00;;;;4929081;28;108838;-66
2023/04/30 04:22:43;;;;;;;12.63;3.03;;;5.80;99.90;5.60;101135.00;;;;4928581;28;108389;-65
2023/04/30 04:25:09;;;;;;;3.17;2.37;;;5.80;99.90;5.70;101136.00;;;;4930713;28;115730;-66
2023/04/30 04:27:35;;;;;;;2.03;1.93;;;5.80;99.90;5.70;101138.00;;;;4925250;28;88503;-65
2023/04/30 04:30:02;;;;;;;3.40;2.83;;;5.80;99.90;5.70;101149.00;;;;4928982;28;108313;-66
2023/04/30 04:32:29;;;;;;;3.10;2.33;;;5.90;99.90;5.80;101138.00;;;;4929765;28;87794;-65
2023/04/30 04:34:55;;;;;;;4.93;2.70;;;5.90;99.90;5.80;101145.00;;;;4927847;28;89121;-65
2023/04/30 04:37:21;;;;;;;2.40;2.10;;;6.00;99.90;5.90;101155.00;;;;4924144;28;88019;-65
2023/04/30 04:39:47;;;;;;;4.77;2.30;;;6.00;99.90;5.90;101160.00;;;;4926067;28;98194;-65
2023/04/30 04:42:15;;;;;;;2.87;2.43;;;6.40;99.90;6.00;101159.00;;;;4929237;28;87974;-65
2023/04/30 04:44:41;;;;;;;2.87;2.53;;;6.10;99.90;6.00;101161.00;;;;4931224;28;88849;-65
2023/04/30 04:47:08;;;;;;;4.50;2.23;;;6.20;99.90;6.10;101164.00;;;;4928346;28;88838;-66
2023/04/30 04:49:34;;;;;;;4.30;2.47;;;6.30;99.90;6.20;101171.00;;;;4928398;28;88019;-66
2023/04/30 04:52:00;;;;;;;3.20;2.23;;;6.40;99.90;6.20;101170.00;;;;4924966;28;99084;-66
2023/04/30 04:54:26;;;;;;;3.13;2.33;;;6.40;99.90;6.30;101178.00;;;;4923043;28;119045;-66
2023/04/30 04:56:52;;;;;;;6.73;2.93;;;7.10;99.90;6.40;101184.00;;;;4925503;28;101204;-66
2023/04/30 04:59:18;;;;;;;4.00;2.30;;;6.60;99.90;6.60;101184.00;;;;4923177;28;110302;-66
2023/04/30 05:01:43;;;;;;;3.83;2.63;;;6.90;99.90;6.70;101177.00;;;;4924877;28;109067;-66
2023/04/30 05:04:09;;;;;;;3.77;2.03;;;6.90;99.90;6.80;101184.00;;;;4924649;28;118213;-66
2023/04/30 05:06:35;;;;;;;4.20;2.43;;;7.40;99.90;6.90;101183.00;;;;4922105;28;117467;-65
2023/04/30 05:09:01;;;;;;;3.80;2.20;;;7.30;99.90;7.00;101186.00;;;;4926328;28;88072;-65
2023/04/30 05:11:27;;;;;;;2.30;2.07;;;7.20;99.90;7.20;101191.00;;;;4926887;28;87065;-66
2023/04/30 05:13:53;;;;;;;2.57;1.80;;;7.30;99.90;7.30;101200.00;;;;4926518;28;117321;-65
2023/04/30 05:16:18;;;;;;;4.63;2.27;;;7.60;99.90;7.40;101190.00;;;;4926949;28;109073;-65
2023/04/30 05:18:44;;;;;;;3.40;2.40;;;7.50;99.90;7.60;101196.00;;;;4924097;28;92757;-65
2023/04/30 05:21:10;;;;;;;2.70;1.83;;;7.70;99.90;7.80;101200.00;;;;4923998;28;101078;-64
2023/04/30 05:23:35;;;;;;;2.07;1.63;;;7.90;99.90;8.00;101206.00;;;;4927047;28;117896;-65
2023/04/30 05:26:02;;;;;;;2.67;2.23;;;8.00;99.90;8.20;101203.00;;;;4929381;28;88097;-65
2023/04/30 05:28:27;;;;;;;1.97;1.77;;;8.20;99.90;8.40;101216.00;;;;4926619;28;87901;-65
2023/04/30 05:30:53;;;;;;;2.00;1.67;;;8.40;99.90;8.50;101213.00;;;;4925138;28;88239;-65
2023/04/30 05:33:19;;;;;;;2.37;1.80;;;8.50;99.90;8.60;101216.00;;;;4924317;28;117147;-65
2023/04/30 05:35:44;;;;;;;1.87;1.53;;;8.60;99.90;8.70;101216.00;;;;4923866;28;115919;-66
2023/04/30 05:38:10;;;;;;;1.40;1.00;;;8.80;99.90;8.80;101226.00;;;;4923804;28;87973;-66
2023/04/30 05:40:36;;;;;;;1.63;1.53;;;8.80;99.90;8.90;101231.00;;;;4941898;28;89356;-65
2023/04/30 05:43:01;;;;;;;7.37;2.03;;;8.90;99.90;8.90;101232.00;;;;4926540;28;93687;-65
2023/04/30 05:45:27;;;;;;;2.40;1.73;;;9.00;99.90;8.90;101227.00;;;;4924343;28;118548;-66
2023/04/30 05:47:53;;;;;;;3.00;1.80;;;9.00;99.90;8.90;101230.00;;;;4928055;28;87926;-66
2023/04/30 05:50:18;;;;;;;1.30;1.20;;;9.00;99.90;9.00;101240.00;;;;4924314;28;88573;-66
2023/04/30 05:52:44;;;;;;;1.90;1.70;;;9.10;99.90;9.10;101233.00;;;;4923563;28;115988;-65
2023/04/30 05:55:10;;;;;;;2.93;1.70;;;9.20;99.90;9.20;101233.00;;;;4925435;28;88250;-66
2023/04/30 05:57:36;;;;;;;2.63;1.80;;;9.30;99.90;9.40;101230.00;;;;4925295;28;87827;-66
2023/04/30 06:00:06;;;;;;;1.53;1.10;;;9.40;99.90;9.40;101247.00;;;;4928346;28;87377;-66
2023/04/30 06:02:31;;;;;;;1.77;1.67;;;9.50;99.90;9.50;101239.00;;;;4925209;28;89217;-66
2023/04/30 06:04:57;;;;;;;4.10;1.80;;;9.60;99.90;9.60;101249.00;;;;4927504;28;117617;-66
2023/04/30 06:07:23;;;;;;;1.53;1.27;;;9.60;99.90;9.80;101249.00;;;;4924325;28;111437;-66
2023/04/30 06:09:48;;;;;;;6.73;1.50;;;9.80;99.90;10.00;101227.00;;;;4922510;28;108238;-66
2023/04/30 06:12:14;;;;;;;2.33;1.83;;;10.00;99.90;10.20;101236.00;;;;4922944;28;117089;-65
2023/04/30 06:14:44;;;;;;;1.23;1.13;;;10.20;99.90;10.40;101229.00;;;;4924123;28;116273;-65
2023/04/30 06:17:10;;;;;;;1.33;1.20;;;10.40;99.90;10.60;101237.00;;;;4923108;28;88000;-65
2023/04/30 06:19:37;;;;;;;1.40;1.07;;;10.60;99.90;10.90;101243.00;;;;4923255;28;102008;-65
2023/04/30 06:22:03;;;;;;;2.43;1.00;;;10.80;99.90;11.10;101252.00;;;;4922644;28;88216;-65
2023/04/30 06:24:29;;;;;;;5.30;1.47;;;11.00;99.90;11.20;101245.00;;;;4928866;28;105621;-64
2023/04/30 06:26:55;;;;;;;2.60;1.70;;;11.20;99.90;11.30;101240.00;;;;4922556;28;87932;-65
2023/04/30 06:29:23;;;;;;;2.93;1.20;;;11.30;99.90;11.40;101240.00;;;;4924049;28;96490;-65
2023/04/30 06:31:50;;;;;;;2.97;1.80;;;11.40;99.90;11.40;101254.00;;;;4925160;28;90026;-65
2023/04/30 06:34:16;;;;;;;2.07;0.97;;;11.50;99.90;11.50;101262.00;;;;4922656;28;89058;-65
2023/04/30 06:36:41;;;;;;;1.17;0.90;;;11.50;99.90;11.50;101255.00;;;;4923997;28;109408;-64
2023/04/30 06:39:07;;;;;;;5.80;1.93;;;11.50;99.90;11.60;101263.00;;;;4926390;28;108120;-65
2023/04/30 06:41:33;;;;;;;2.27;1.07;;;11.60;99.90;11.60;101260.00;;;;4922321;28;116816;-66
2023/04/30 06:43:59;;;;;;;1.33;0.90;;;11.60;99.90;11.70;101251.00;;;;4923331;28;117918;-65
2023/04/30 06:46:24;;;;;;;2.37;1.03;;;11.70;99.90;11.80;101261.00;;;;4925557;28;89478;-66
2023/04/30 06:48:50;;;;;;;3.60;1.03;;;11.80;99.90;12.00;101263.00;;;;4924777;28;87464;-65
2023/04/30 06:51:16;;;;;;;1.23;1.13;;;11.90;99.90;12.10;101269.00;;;;4924534;28;117039;-66
2023/04/30 06:53:41;;;;;;;0.90;0.90;;;12.10;99.90;12.30;101266.00;;;;4922374;28;117751;-66
2023/04/30 06:56:07;;;;;;;1.53;0.97;;;12.20;99.90;12.40;101274.00;;;;4924936;28;102898;-64
2023/04/30 06:58:33;;;;;;;5.90;1.43;;;12.30;99.90;12.50;101263.00;;;;4923182;28;108266;-65
2023/04/30 07:00:58;;;;;;;1.90;1.10;;;12.50;99.90;12.60;101265.00;;;;4923725;28;117311;-65
2023/04/30 07:03:25;;;;;;;2.10;0.83;;;12.60;99.90;12.80;101265.00;;;;4920228;28;117607;-65
2023/04/30 07:05:52;;;;;;;1.93;1.40;;;12.70;99.90;12.90;101252.00;;;;4926799;28;89373;-65
2023/04/30 07:08:18;;;;;;;1.33;1.03;;;12.80;99.90;12.90;101262.00;;;;4925364;28;87852;-65
2023/04/30 07:10:44;;;;;;;1.13;1.00;;;12.90;99.90;12.90;101270.00;;;;4922361;28;88896;-65
2023/04/30 07:13:09;;;;;;;4.03;1.67;;;12.80;99.90;12.90;101274.00;;;;4924211;28;115810;-65
2023/04/30 07:15:35;;;;;;;2.37;1.03;;;12.90;99.90;13.00;101277.00;;;;4927204;28;87922;-65
2023/04/30 07:18:02;;;;;;;2.33;0.90;;;13.00;99.90;13.10;101266.00;;;;4930655;28;89421;-65
2023/04/30 07:20:28;;;;;;;1.17;1.07;;;13.30;99.90;13.20;101268.00;;;;4927832;28;89377;-65
2023/04/30 07:22:54;;;;;;;0.80;0.77;;;13.10;99.90;13.30;101273.00;;;;4927513;28;111779;-65
2023/04/30 07:25:20;;;;;;;2.40;1.07;;;13.30;99.90;13.40;101273.00;;;;4924575;28;88085;-67
2023/04/30 07:27:45;;;;;;;2.83;1.10;;;13.40;99.90;13.50;101283.00;;;;4925933;28;109043;-65
2023/04/30 07:30:11;;;;;;;3.50;0.80;;;13.40;99.90;13.60;101278.00;;;;4929437;28;118264;-65
2023/04/30 07:32:39;;;;;;;1.55;0.82;;;13.60;99.90;13.60;101281.00;;;;4926620;28;88397;-65
2023/04/30 07:35:08;;;;;;;2.43;1.43;;;13.60;99.90;13.70;101283.00;;;;4931498;28;88078;-65
2023/04/30 07:37:34;;;;;;;3.43;1.03;;;13.70;99.90;13.70;101280.00;;;;4930449;28;102312;-65
2023/04/30 07:39:59;;;;;;;3.03;1.43;;;13.80;99.90;13.80;101275.00;;;;4926132;28;118051;-65
2023/04/30 07:42:25;;;;;;;1.48;1.17;;;13.80;99.90;13.90;101282.00;;;;4927670;28;118570;-65
2023/04/30 07:44:51;;;;;;;2.05;0.93;;;13.90;99.90;14.00;101284.00;;;;4927049;28;88983;-65
2023/04/30 07:47:18;;;;;;;3.33;1.83;;;13.90;99.90;14.30;101268.00;;;;4923258;28;87946;-66
2023/04/30 07:49:46;;;;;;;0.67;0.67;;;14.20;99.90;14.70;101282.00;;;;4929288;28;87986;-65
2023/04/30 07:52:12;;;;;;;1.50;0.93;;;14.50;99.90;15.00;101288.00;;;;4925158;28;88007;-66
2023/04/30 07:54:38;;;;;;;1.08;0.98;;;14.80;99.50;15.30;101286.00;;;;4928563;28;87886;-65
2023/04/30 07:57:05;;;;;;;1.42;1.27;;;15.10;98.60;15.60;101291.00;;;;4928119;28;87893;-65
2023/04/30 07:59:31;;;;;;;1.85;1.20;;;15.40;97.80;15.90;101291.00;;;;4923646;28;118808;-66
2023/04/30 08:01:57;;;;;;;3.60;1.48;;;15.70;97.10;16.20;101289.00;;;;4924458;28;117959;-66
2023/04/30 08:04:23;;;;;;;0.73;0.73;;;16.00;95.50;16.30;101301.00;;;;4925241;28;87736;-66
2023/04/30 08:06:49;;;;;;;0.70;0.70;;;16.20;92.10;16.40;101300.00;;;;4928188;28;87879;-66
2023/04/30 08:09:15;;;;;;;0.70;0.70;;;16.30;92.80;16.60;101303.00;;;;4925968;28;89569;-65
2023/04/30 08:11:41;;;;;;;0.63;0.63;;;16.50;92.00;16.70;101304.00;;;;4921860;28;89689;-66
2023/04/30 08:14:06;;;;;;;0.90;0.90;;;16.60;91.00;16.80;101296.00;;;;4924221;28;99909;-66
2023/04/30 08:16:32;;;;;;;3.88;1.00;;;16.70;90.20;16.90;101300.00;;;;4926192;28;87880;-66
2023/04/30 08:18:58;;;;;;;1.45;0.75;;;16.80;88.90;17.00;101295.00;;;;4923253;28;117182;-66
2023/04/30 08:21:23;;;;;;;3.58;1.48;;;16.90;88.70;17.30;101301.00;;;;4045919;28;10000816;-66
2023/04/30 08:23:49;;;;;;;1.05;0.95;;;17.10;88.70;17.50;101295.00;;;;4927508;28;88043;-66
2023/04/30 08:26:15;;;;;;;1.00;0.80;;;17.40;85.50;17.70;101301.00;;;;4923896;28;88626;-65
2023/04/30 08:28:41;;;;;;;3.33;0.85;;;17.60;84.90;17.90;101298.00;;;;4925702;28;111632;-66
2023/04/30 08:31:07;;;;;;;1.50;0.80;;;17.70;82.80;17.70;101301.00;;;;4923967;28;87952;-66
2023/04/30 08:33:32;;;;;;;1.23;1.13;;;17.80;77.40;17.60;101291.00;;;;4925538;28;89084;-66
2023/04/30 08:35:58;;;;;;;0.90;0.70;;;17.70;75.10;17.40;101298.00;;;;4925198;28;116632;-65
2023/04/30 08:38:24;;;;;;;4.90;1.52;;;17.50;75.90;17.40;101296.00;;;;4925422;28;87973;-66
2023/04/30 08:41:07;;;;;;;1.45;0.73;;;17.40;75.00;17.40;101303.00;;;;4929841;28;97320;-65
2023/04/30 08:43:34;;;;;;;2.55;1.15;;;17.40;75.00;17.70;101315.00;;;;4923522;28;87782;-65
2023/04/30 08:46:00;;;;;;;0.82;0.52;;;17.60;76.60;17.80;101311.00;;;;4925619;28;88394;-66
2023/04/30 08:48:26;;;;;;;0.75;0.68;;;17.70;75.10;17.80;101307.00;;;;4927412;28;109825;-66
2023/04/30 08:50:52;;;;;;;3.03;0.82;;;17.80;73.70;18.00;101299.00;;;;4926274;28;107838;-65
2023/04/30 08:53:20;;;;;;;1.70;1.17;;;17.90;73.50;18.20;101300.00;;;;4924323;28;88259;-65
2023/04/30 08:55:46;;;;;;;5.70;1.20;;;18.00;72.90;18.30;101305.00;;;;4922782;28;88532;-66
2023/04/30 08:58:12;;;;;;;1.30;0.82;;;18.20;70.10;18.40;101305.00;;;;4923084;28;97318;-65
2023/04/30 09:00:39;;;;;;;4.80;0.80;;;18.30;70.00;18.40;101317.00;;;;4922758;28;87847;-66
2023/04/30 09:03:06;;;;;;;1.52;0.73;;;18.40;69.80;18.50;101306.00;;;;4921360;28;89236;-66
2023/04/30 09:05:32;;;;;;;4.05;1.38;;;18.40;69.10;18.60;101313.00;;;;4929488;28;88370;-65
2023/04/30 09:07:58;;;;;;;1.15;0.63;;;18.50;69.00;18.70;101310.00;;;;4922745;28;109996;-65
2023/04/30 09:10:24;;;;;;;1.65;1.42;;;18.50;67.50;18.80;101304.00;;;;4930070;28;108902;-65
2023/04/30 09:13:07;;;;;;;2.50;0.88;;;18.60;66.80;18.90;101309.00;;;;4929212;28;88666;-65
2023/04/30 09:15:35;;;;;;;1.27;0.52;;;18.70;65.90;18.90;101304.00;;;;4929600;28;88633;-65
2023/04/30 09:18:18;;;;;;;0.68;0.68;;;18.80;64.00;19.00;101306.00;;;;4928112;28;87647;-64
2023/04/30 09:20:54;;;;;;;1.98;1.27;;;18.80;64.10;19.00;101314.00;;;;4926878;28;107594;-65
2023/04/30 09:23:20;;;;;;;1.83;0.85;;;18.90;62.80;18.70;101313.00;;;;4925970;28;89822;-65
2023/04/30 09:25:46;;;;;;;2.78;0.82;;;18.70;62.80;18.30;101310.00;;;;4926294;28;89734;-65
2023/04/30 09:28:13;;;;;;;0.85;0.77;;;18.40;60.70;18.20;101307.00;;;;4923774;28;109144;-65
2023/04/30 09:30:40;;;;;;;1.05;0.68;;;18.20;61.10;18.00;101309.00;;;;4928863;28;101867;-65
2023/04/30 09:33:06;;;;;;;1.27;0.88;;;18.10;59.40;18.00;101304.00;;;;4924375;28;88346;-65
2023/04/30 09:35:34;;;;;;;2.15;1.23;;;17.90;59.40;18.20;101294.00;;;;4925484;28;104183;-64
2023/04/30 09:38:01;;;;;;;0.68;0.50;;;18.00;61.00;18.50;101299.00;;;;4922494;28;87829;-65
2023/04/30 09:40:41;;;;;;;3.50;0.43;;;18.20;61.50;18.80;101302.00;;;;4930520;28;87577;-65
2023/04/30 09:43:08;;;;;;;1.50;0.82;;;18.50;61.70;19.00;101303.00;;;;4923828;28;88145;-65
2023/04/30 09:45:50;;;;;;;2.88;1.33;;;18.70;60.80;18.70;101303.00;;;;4924937;28;106415;-65
2023/04/30 09:48:17;;;;;;;1.52;1.15;;;18.70;58.90;18.60;101304.00;;;;4922780;28;89199;-65
2023/04/30 09:50:44;;;;;;;1.75;0.93;;;18.50;59.10;18.40;101288.00;;;;4923553;28;89627;-66
2023/04/30 09:53:13;;;;;;;0.85;0.63;;;18.40;58.00;18.30;101295.00;;;;4924636;28;87742;-66
2023/04/30 09:55:43;;;;;;;1.20;1.00;;;18.20;57.40;18.10;101294.00;;;;4923454;28;88125;-65
2023/04/30 09:58:11;;;;;;;1.85;1.15;;;18.10;57.10;17.80;101288.00;;;;4925411;28;87868;-65
2023/04/30 10:00:38;;;;;;;0.82;0.75;;;17.80;57.40;17.60;101290.00;;;;4923003;28;87986;-65
2023/04/30 10:03:10;;;;;;;2.20;0.90;;;17.60;58.50;17.70;101285.00;;;;4924143;28;89018;-66
2023/04/30 10:05:40;;;;;;;1.00;0.73;;;17.60;58.50;17.90;101293.00;;;;4925200;28;88168;-66
2023/04/30 10:08:43;;;;;;;1.80;1.02;;;17.60;58.70;18.00;101283.00;;;;4926301;28;100386;-66
2023/04/30 10:11:15;;;;;;;1.98;0.70;;;17.70;57.80;18.20;101279.00;;;;4924858;28;87949;-66
2023/04/30 10:14:03;;;;;;;1.70;1.10;;;17.80;56.80;18.50;101279.00;;;;4922663;28;89788;-66
2023/04/30 10:17:03;;;;;;;0.77;0.73;;;18.10;56.80;18.70;101275.00;;;;4925111;28;88146;-66
2023/04/30 10:19:35;;;;;;;2.25;1.08;;;18.30;55.60;19.00;101274.00;;;;4924770;28;87847;-66
2023/04/30 10:22:01;;;;;;;0.80;0.80;;;18.50;55.50;19.40;101275.00;;;;4928296;28;88111;-68
2023/04/30 10:24:27;;;;;;;1.45;0.82;;;18.80;55.80;19.90;101268.00;;;;4923687;28;88006;-69
2023/04/30 10:26:56;;;;;;;1.77;0.80;;;19.30;55.90;20.20;101269.00;;;;4924163;28;88713;-70
2023/04/30 10:29:21;;;;;;;1.67;1.35;;;19.60;53.60;20.50;101266.00;;;;4925588;28;88028;-69
2023/04/30 10:31:51;;;;;;;0.63;0.50;;;19.90;53.80;20.60;101267.00;;;;4927319;28;92750;-69
2023/04/30 10:34:34;;;;;;;1.85;0.95;;;20.10;52.60;20.70;101262.00;;;;4925983;28;89073;-68
2023/04/30 10:37:19;;;;;;;1.00;0.90;;;20.30;50.40;20.60;101257.00;;;;4922473;28;88538;-69
2023/04/30 10:39:46;;;;;;;2.05;0.98;;;20.20;51.30;20.80;101256.00;;;;4907480;28;105852;-69
2023/04/30 10:42:12;;;;;;;2.47;1.02;;;20.40;51.30;21.00;101252.00;;;;4924366;28;87874;-69
2023/04/30 10:44:38;;;;;;;1.15;0.80;;;20.50;50.20;21.10;101247.00;;;;4923536;28;88475;-69
2023/04/30 10:47:06;;;;;;;3.03;0.85;;;20.60;49.50;21.10;101258.00;;;;4925782;28;93631;-69
2023/04/30 10:49:32;;;;;;;2.00;0.75;;;20.60;49.30;21.20;101248.00;;;;4924568;28;87924;-68
2023/04/30 10:52:03;;;;;;;1.13;0.52;;;20.70;49.90;21.40;101249.00;;;;4923825;28;88022;-69
2023/04/30 10:54:35;;;;;;;1.27;0.70;;;20.90;48.70;21.70;101257.00;;;;4923739;28;87997;-69
2023/04/30 10:57:13;;;;;;;0.80;0.70;;;21.10;49.60;22.10;101261.00;;;;4926409;28;87739;-68
2023/04/30 11:00:08;;;;;;;0.80;0.70;;;21.40;49.30;22.50;101263.00;;;;4928025;28;87979;-70
2023/04/30 11:02:40;;;;;;;1.10;0.90;;;21.90;48.60;23.00;101268.00;;;;4921071;28;88037;-70